sensor_id;sensor_type;location;lat;lon;timestamp;P1;durP1;ratioP1;P2;durP2;ratioP2
65189;SDS011;51777;53.570;9.984;2023-07-13T00:00:17;6.80;;;2.20;;
65189;SDS011;51777;53.570;9.984;2023-07-13T00:02:42;5.70;;;2.33;;
65189;SDS011;51777;53.570;9.984;2023-07-13T00:05:08;13.63;;;2.35;;
65189;SDS011;51777;53.570;9.984;2023-07-13T00:07:34;7.18;;;2.40;;
65189;SDS011;51777;53.570;9.984;2023-07-13T00:10:00;6.32;;;2.40;;
65189;SDS011;51777;53.570;9.984;2023-07-13T00:12:27;5.72;;;2.08;;
65189;SDS011;51777;53.570;9.984;2023-07-13T00:14:58;5.70;;;2.30;;
65189;SDS011;51777;53.570;9.984;2023-07-13T00:17:25;8.95;;;2.08;;
65189;SDS011;51777;53.570;9.984;2023-07-13T00:19:52;4.57;;;2.00;;
65189;SDS011;51777;53.570;9.984;2023-07-13T00:22:18;7.47;;;2.00;;
65189;SDS011;51777;53.570;9.984;2023-07-13T00:24:44;10.43;;;2.20;;
65189;SDS011;51777;53.570;9.984;2023-07-13T00:27:10;6.70;;;2.15;;
65189;SDS011;51777;53.570;9.984;2023-07-13T00:29:36;6.97;;;2.03;;
65189;SDS011;51777;53.570;9.984;2023-07-13T00:32:05;3.90;;;1.98;;
65189;SDS011;51777;53.570;9.984;2023-07-13T00:34:32;7.65;;;2.03;;
65189;SDS011;51777;53.570;9.984;2023-07-13T00:36:57;3.08;;;1.73;;
65189;SDS011;51777;53.570;9.984;2023-07-13T00:39:23;5.38;;;1.73;;
65189;SDS011;51777;53.570;9.984;2023-07-13T00:41:49;7.32;;;1.88;;
65189;SDS011;51777;53.570;9.984;2023-07-13T00:44:15;5.32;;;1.85;;
65189;SDS011;51777;53.570;9.984;2023-07-13T00:46:42;4.30;;;2.05;;
65189;SDS011;51777;53.570;9.984;2023-07-13T00:49:09;4.63;;;1.77;;
65189;SDS011;51777;53.570;9.984;2023-07-13T00:51:45;5.50;;;1.90;;
65189;SDS011;51777;53.570;9.984;2023-07-13T00:54:22;4.85;;;1.67;;
65189;SDS011;51777;53.570;9.984;2023-07-13T00:57:01;4.03;;;1.77;;
65189;SDS011;51777;53.570;9.984;2023-07-13T00:59:29;4.72;;;2.13;;
65189;SDS011;51777;53.570;9.984;2023-07-13T01:01:56;7.45;;;2.28;;
65189;SDS011;51777;53.570;9.984;2023-07-13T01:04:23;5.07;;;2.25;;
65189;SDS011;51777;53.570;9.984;2023-07-13T01:06:50;4.80;;;2.20;;
65189;SDS011;51777;53.570;9.984;2023-07-13T01:09:16;5.78;;;2.28;;
65189;SDS011;51777;53.570;9.984;2023-07-13T01:11:42;8.00;;;2.22;;
65189;SDS011;51777;53.570;9.984;2023-07-13T01:14:09;5.55;;;2.63;;
65189;SDS011;51777;53.570;9.984;2023-07-13T01:16:36;6.82;;;2.38;;
65189;SDS011;51777;53.570;9.984;2023-07-13T01:19:05;6.63;;;2.53;;
65189;SDS011;51777;53.570;9.984;2023-07-13T01:21:44;6.38;;;2.17;;
65189;SDS011;51777;53.570;9.984;2023-07-13T01:24:15;6.65;;;2.50;;
65189;SDS011;51777;53.570;9.984;2023-07-13T01:26:41;11.13;;;2.70;;
65189;SDS011;51777;53.570;9.984;2023-07-13T01:29:06;9.02;;;2.47;;
65189;SDS011;51777;53.570;9.984;2023-07-13T01:31:32;4.78;;;2.70;;
65189;SDS011;51777;53.570;9.984;2023-07-13T01:33:58;4.88;;;2.75;;
65189;SDS011;51777;53.570;9.984;2023-07-13T01:36:23;5.85;;;2.38;;
65189;SDS011;51777;53.570;9.984;2023-07-13T01:38:49;4.93;;;2.33;;
65189;SDS011;51777;53.570;9.984;2023-07-13T01:41:14;3.30;;;2.15;;
65189;SDS011;51777;53.570;9.984;2023-07-13T01:43:40;11.63;;;2.97;;
65189;SDS011;51777;53.570;9.984;2023-07-13T01:46:05;5.70;;;2.60;;
65189;SDS011;51777;53.570;9.984;2023-07-13T01:48:30;5.72;;;2.50;;
65189;SDS011;51777;53.570;9.984;2023-07-13T01:50:56;7.00;;;2.78;;
65189;SDS011;51777;53.570;9.984;2023-07-13T01:53:21;8.02;;;2.40;;
65189;SDS011;51777;53.570;9.984;2023-07-13T01:55:46;4.65;;;2.65;;
65189;SDS011;51777;53.570;9.984;2023-07-13T01:58:12;2.97;;;2.15;;
65189;SDS011;51777;53.570;9.984;2023-07-13T02:00:37;6.53;;;2.63;;
65189;SDS011;51777;53.570;9.984;2023-07-13T02:03:03;4.90;;;2.50;;
65189;SDS011;51777;53.570;9.984;2023-07-13T02:05:28;5.05;;;2.50;;
65189;SDS011;51777;53.570;9.984;2023-07-13T02:07:54;5.80;;;2.67;;
65189;SDS011;51777;53.570;9.984;2023-07-13T02:10:19;5.13;;;2.55;;
65189;SDS011;51777;53.570;9.984;2023-07-13T02:12:45;7.35;;;2.80;;
65189;SDS011;51777;53.570;9.984;2023-07-13T02:15:10;5.18;;;2.40;;
65189;SDS011;51777;53.570;9.984;2023-07-13T02:17:36;5.40;;;2.63;;
65189;SDS011;51777;53.570;9.984;2023-07-13T02:20:02;6.75;;;2.78;;
65189;SDS011;51777;53.570;9.984;2023-07-13T02:22:29;4.90;;;2.75;;
65189;SDS011;51777;53.570;9.984;2023-07-13T02:24:55;4.75;;;2.90;;
65189;SDS011;51777;53.570;9.984;2023-07-13T02:27:20;7.65;;;3.15;;
65189;SDS011;51777;53.570;9.984;2023-07-13T02:29:46;5.72;;;2.78;;
65189;SDS011;51777;53.570;9.984;2023-07-13T02:32:11;5.88;;;3.10;;
65189;SDS011;51777;53.570;9.984;2023-07-13T02:34:37;7.03;;;2.80;;
65189;SDS011;51777;53.570;9.984;2023-07-13T02:37:02;5.68;;;2.80;;
65189;SDS011;51777;53.570;9.984;2023-07-13T02:39:28;6.20;;;2.78;;
65189;SDS011;51777;53.570;9.984;2023-07-13T02:41:53;5.28;;;2.80;;
65189;SDS011;51777;53.570;9.984;2023-07-13T02:44:18;4.57;;;2.95;;
65189;SDS011;51777;53.570;9.984;2023-07-13T02:46:44;4.90;;;2.70;;
65189;SDS011;51777;53.570;9.984;2023-07-13T02:49:09;5.45;;;2.53;;
65189;SDS011;51777;53.570;9.984;2023-07-13T02:51:35;6.13;;;2.80;;
65189;SDS011;51777;53.570;9.984;2023-07-13T02:54:01;9.52;;;2.80;;
65189;SDS011;51777;53.570;9.984;2023-07-13T02:56:27;9.60;;;2.42;;
65189;SDS011;51777;53.570;9.984;2023-07-13T02:58:54;5.10;;;2.65;;
65189;SDS011;51777;53.570;9.984;2023-07-13T03:01:20;6.95;;;2.83;;
65189;SDS011;51777;53.570;9.984;2023-07-13T03:03:46;7.68;;;2.83;;
65189;SDS011;51777;53.570;9.984;2023-07-13T03:06:13;6.55;;;2.60;;
65189;SDS011;51777;53.570;9.984;2023-07-13T03:08:39;6.68;;;2.90;;
65189;SDS011;51777;53.570;9.984;2023-07-13T03:11:12;5.50;;;2.70;;
65189;SDS011;51777;53.570;9.984;2023-07-13T03:13:41;4.63;;;2.70;;
65189;SDS011;51777;53.570;9.984;2023-07-13T03:16:07;5.18;;;2.60;;
65189;SDS011;51777;53.570;9.984;2023-07-13T03:18:34;6.80;;;2.63;;
65189;SDS011;51777;53.570;9.984;2023-07-13T03:21:00;5.53;;;2.53;;
65189;SDS011;51777;53.570;9.984;2023-07-13T03:23:26;7.18;;;2.50;;
65189;SDS011;51777;53.570;9.984;2023-07-13T03:26:06;5.15;;;2.50;;
65189;SDS011;51777;53.570;9.984;2023-07-13T03:28:37;7.35;;;2.90;;
65189;SDS011;51777;53.570;9.984;2023-07-13T03:31:04;4.97;;;2.45;;
65189;SDS011;51777;53.570;9.984;2023-07-13T03:33:32;5.13;;;2.20;;
65189;SDS011;51777;53.570;9.984;2023-07-13T03:35:58;3.70;;;2.40;;
65189;SDS011;51777;53.570;9.984;2023-07-13T03:38:23;8.32;;;2.50;;
65189;SDS011;51777;53.570;9.984;2023-07-13T03:40:49;5.40;;;2.25;;
65189;SDS011;51777;53.570;9.984;2023-07-13T03:43:14;4.50;;;2.42;;
65189;SDS011;51777;53.570;9.984;2023-07-13T03:45:40;6.07;;;2.50;;
65189;SDS011;51777;53.570;9.984;2023-07-13T03:48:06;7.85;;;2.45;;
65189;SDS011;51777;53.570;9.984;2023-07-13T03:50:31;5.93;;;2.15;;
65189;SDS011;51777;53.570;9.984;2023-07-13T03:52:57;8.02;;;2.33;;
65189;SDS011;51777;53.570;9.984;2023-07-13T03:55:23;9.48;;;2.70;;
65189;SDS011;51777;53.570;9.984;2023-07-13T03:57:53;6.68;;;2.42;;
65189;SDS011;51777;53.570;9.984;2023-07-13T04:00:23;5.30;;;2.10;;
65189;SDS011;51777;53.570;9.984;2023-07-13T04:02:49;4.32;;;2.05;;
65189;SDS011;51777;53.570;9.984;2023-07-13T04:05:15;6.97;;;2.47;;
65189;SDS011;51777;53.570;9.984;2023-07-13T04:07:40;7.72;;;2.63;;
65189;SDS011;51777;53.570;9.984;2023-07-13T04:10:06;3.45;;;1.95;;
65189;SDS011;51777;53.570;9.984;2023-07-13T04:12:32;9.80;;;2.25;;
65189;SDS011;51777;53.570;9.984;2023-07-13T04:14:57;6.78;;;2.50;;
65189;SDS011;51777;53.570;9.984;2023-07-13T04:17:23;7.10;;;2.25;;
65189;SDS011;51777;53.570;9.984;2023-07-13T04:19:48;8.32;;;2.63;;
65189;SDS011;51777;53.570;9.984;2023-07-13T04:22:14;12.73;;;2.50;;
65189;SDS011;51777;53.570;9.984;2023-07-13T04:24:39;7.25;;;2.80;;
65189;SDS011;51777;53.570;9.984;2023-07-13T04:27:04;9.57;;;2.38;;
65189;SDS011;51777;53.570;9.984;2023-07-13T04:29:30;5.35;;;2.42;;
65189;SDS011;51777;53.570;9.984;2023-07-13T04:31:55;14.02;;;3.00;;
65189;SDS011;51777;53.570;9.984;2023-07-13T04:34:21;9.23;;;2.75;;
65189;SDS011;51777;53.570;9.984;2023-07-13T04:36:46;11.77;;;2.97;;
65189;SDS011;51777;53.570;9.984;2023-07-13T04:39:11;12.00;;;2.75;;
65189;SDS011;51777;53.570;9.984;2023-07-13T04:41:37;9.27;;;2.80;;
65189;SDS011;51777;53.570;9.984;2023-07-13T04:44:02;7.03;;;2.75;;
65189;SDS011;51777;53.570;9.984;2023-07-13T04:46:28;6.13;;;2.67;;
65189;SDS011;51777;53.570;9.984;2023-07-13T04:48:53;7.15;;;2.75;;
65189;SDS011;51777;53.570;9.984;2023-07-13T04:51:19;9.00;;;2.53;;
65189;SDS011;51777;53.570;9.984;2023-07-13T04:53:44;9.00;;;2.53;;
65189;SDS011;51777;53.570;9.984;2023-07-13T04:56:11;9.88;;;2.92;;
65189;SDS011;51777;53.570;9.984;2023-07-13T04:58:37;9.65;;;2.88;;
65189;SDS011;51777;53.570;9.984;2023-07-13T05:01:03;9.13;;;2.47;;
65189;SDS011;51777;53.570;9.984;2023-07-13T05:03:30;10.57;;;2.80;;
65189;SDS011;51777;53.570;9.984;2023-07-13T05:05:57;4.07;;;2.20;;
65189;SDS011;51777;53.570;9.984;2023-07-13T05:08:24;9.82;;;2.90;;
65189;SDS011;51777;53.570;9.984;2023-07-13T05:10:50;7.68;;;2.40;;
65189;SDS011;51777;53.570;9.984;2023-07-13T05:13:16;7.30;;;2.55;;
65189;SDS011;51777;53.570;9.984;2023-07-13T05:15:41;5.07;;;2.78;;
65189;SDS011;51777;53.570;9.984;2023-07-13T05:18:07;10.20;;;2.47;;
65189;SDS011;51777;53.570;9.984;2023-07-13T05:20:32;9.68;;;2.83;;
65189;SDS011;51777;53.570;9.984;2023-07-13T05:22:57;8.68;;;2.95;;
65189;SDS011;51777;53.570;9.984;2023-07-13T05:25:23;7.30;;;2.60;;
65189;SDS011;51777;53.570;9.984;2023-07-13T05:27:48;13.75;;;2.75;;
65189;SDS011;51777;53.570;9.984;2023-07-13T05:30:14;7.20;;;2.47;;
65189;SDS011;51777;53.570;9.984;2023-07-13T05:32:39;13.90;;;2.85;;
65189;SDS011;51777;53.570;9.984;2023-07-13T05:35:05;4.43;;;1.45;;
65189;SDS011;51777;53.570;9.984;2023-07-13T05:37:31;9.52;;;3.20;;
65189;SDS011;51777;53.570;9.984;2023-07-13T05:39:57;10.05;;;2.83;;
65189;SDS011;51777;53.570;9.984;2023-07-13T05:42:22;16.85;;;3.20;;
65189;SDS011;51777;53.570;9.984;2023-07-13T05:44:47;13.55;;;3.20;;
65189;SDS011;51777;53.570;9.984;2023-07-13T05:47:13;12.68;;;3.30;;
65189;SDS011;51777;53.570;9.984;2023-07-13T05:49:39;13.23;;;3.30;;
65189;SDS011;51777;53.570;9.984;2023-07-13T05:52:05;11.95;;;3.17;;
65189;SDS011;51777;53.570;9.984;2023-07-13T05:54:31;9.25;;;3.00;;
65189;SDS011;51777;53.570;9.984;2023-07-13T05:56:56;11.57;;;3.20;;
65189;SDS011;51777;53.570;9.984;2023-07-13T05:59:22;13.65;;;3.47;;
65189;SDS011;51777;53.570;9.984;2023-07-13T06:01:47;13.52;;;3.22;;
65189;SDS011;51777;53.570;9.984;2023-07-13T06:04:13;7.70;;;2.22;;
65189;SDS011;51777;53.570;9.984;2023-07-13T06:06:38;10.10;;;2.40;;
65189;SDS011;51777;53.570;9.984;2023-07-13T06:09:03;11.95;;;2.55;;
65189;SDS011;51777;53.570;9.984;2023-07-13T06:11:29;12.00;;;3.40;;
65189;SDS011;51777;53.570;9.984;2023-07-13T06:13:55;14.93;;;3.33;;
65189;SDS011;51777;53.570;9.984;2023-07-13T06:16:21;12.70;;;2.78;;
65189;SDS011;51777;53.570;9.984;2023-07-13T06:18:47;10.25;;;2.72;;
65189;SDS011;51777;53.570;9.984;2023-07-13T06:21:13;11.63;;;2.40;;
65189;SDS011;51777;53.570;9.984;2023-07-13T06:23:41;12.75;;;2.90;;
65189;SDS011;51777;53.570;9.984;2023-07-13T06:26:07;12.98;;;2.80;;
65189;SDS011;51777;53.570;9.984;2023-07-13T06:28:32;10.00;;;2.78;;
65189;SDS011;51777;53.570;9.984;2023-07-13T06:30:59;9.57;;;2.80;;
65189;SDS011;51777;53.570;9.984;2023-07-13T06:33:25;13.82;;;2.80;;
65189;SDS011;51777;53.570;9.984;2023-07-13T06:35:51;12.77;;;2.95;;
65189;SDS011;51777;53.570;9.984;2023-07-13T06:38:17;12.27;;;2.92;;
65189;SDS011;51777;53.570;9.984;2023-07-13T06:40:42;17.73;;;3.35;;
65189;SDS011;51777;53.570;9.984;2023-07-13T06:43:08;18.45;;;3.05;;
65189;SDS011;51777;53.570;9.984;2023-07-13T06:45:40;11.73;;;2.90;;
65189;SDS011;51777;53.570;9.984;2023-07-13T06:48:07;12.05;;;3.00;;
65189;SDS011;51777;53.570;9.984;2023-07-13T06:50:33;7.63;;;2.58;;
65189;SDS011;51777;53.570;9.984;2023-07-13T06:52:59;7.65;;;2.28;;
65189;SDS011;51777;53.570;9.984;2023-07-13T06:55:24;13.10;;;2.80;;
65189;SDS011;51777;53.570;9.984;2023-07-13T06:57:50;7.45;;;2.22;;
65189;SDS011;51777;53.570;9.984;2023-07-13T07:00:16;11.77;;;2.65;;
65189;SDS011;51777;53.570;9.984;2023-07-13T07:02:41;18.27;;;3.10;;
65189;SDS011;51777;53.570;9.984;2023-07-13T07:05:07;6.43;;;2.15;;
65189;SDS011;51777;53.570;9.984;2023-07-13T07:07:32;14.98;;;2.95;;
65189;SDS011;51777;53.570;9.984;2023-07-13T07:09:58;6.93;;;2.45;;
65189;SDS011;51777;53.570;9.984;2023-07-13T07:12:23;7.60;;;2.05;;
65189;SDS011;51777;53.570;9.984;2023-07-13T07:14:48;3.40;;;1.55;;
65189;SDS011;51777;53.570;9.984;2023-07-13T07:17:15;13.20;;;3.03;;
65189;SDS011;51777;53.570;9.984;2023-07-13T07:19:41;11.30;;;2.85;;
65189;SDS011;51777;53.570;9.984;2023-07-13T07:22:07;13.65;;;3.03;;
65189;SDS011;51777;53.570;9.984;2023-07-13T07:24:32;11.10;;;2.58;;
65189;SDS011;51777;53.570;9.984;2023-07-13T07:26:57;13.32;;;3.08;;
65189;SDS011;51777;53.570;9.984;2023-07-13T07:29:23;14.95;;;2.85;;
65189;SDS011;51777;53.570;9.984;2023-07-13T07:31:52;12.45;;;2.55;;
65189;SDS011;51777;53.570;9.984;2023-07-13T07:34:18;7.80;;;1.60;;
65189;SDS011;51777;53.570;9.984;2023-07-13T07:36:44;5.78;;;1.90;;
65189;SDS011;51777;53.570;9.984;2023-07-13T07:39:10;11.90;;;2.70;;
65189;SDS011;51777;53.570;9.984;2023-07-13T07:41:36;11.40;;;2.47;;
65189;SDS011;51777;53.570;9.984;2023-07-13T07:44:02;12.45;;;2.60;;
65189;SDS011;51777;53.570;9.984;2023-07-13T07:46:28;14.52;;;2.38;;
65189;SDS011;51777;53.570;9.984;2023-07-13T07:48:54;14.60;;;2.50;;
65189;SDS011;51777;53.570;9.984;2023-07-13T07:51:20;6.90;;;2.00;;
65189;SDS011;51777;53.570;9.984;2023-07-13T07:53:46;10.18;;;2.50;;
65189;SDS011;51777;53.570;9.984;2023-07-13T07:56:12;7.50;;;2.05;;
65189;SDS011;51777;53.570;9.984;2023-07-13T07:58:38;8.50;;;2.50;;
65189;SDS011;51777;53.570;9.984;2023-07-13T08:01:07;7.95;;;2.05;;
65189;SDS011;51777;53.570;9.984;2023-07-13T08:03:41;11.38;;;2.83;;
65189;SDS011;51777;53.570;9.984;2023-07-13T08:06:07;10.30;;;2.55;;
65189;SDS011;51777;53.570;9.984;2023-07-13T08:08:34;9.77;;;1.85;;
65189;SDS011;51777;53.570;9.984;2023-07-13T08:11:04;15.50;;;2.55;;
65189;SDS011;51777;53.570;9.984;2023-07-13T08:13:31;8.18;;;2.17;;
65189;SDS011;51777;53.570;9.984;2023-07-13T08:15:57;5.47;;;1.80;;
65189;SDS011;51777;53.570;9.984;2023-07-13T08:18:23;6.55;;;1.75;;
65189;SDS011;51777;53.570;9.984;2023-07-13T08:20:51;8.50;;;1.80;;
65189;SDS011;51777;53.570;9.984;2023-07-13T08:23:17;11.63;;;2.40;;
65189;SDS011;51777;53.570;9.984;2023-07-13T08:25:42;10.95;;;2.50;;
65189;SDS011;51777;53.570;9.984;2023-07-13T08:28:08;6.80;;;2.03;;
65189;SDS011;51777;53.570;9.984;2023-07-13T08:30:34;6.60;;;1.80;;
65189;SDS011;51777;53.570;9.984;2023-07-13T08:33:01;7.78;;;1.83;;
65189;SDS011;51777;53.570;9.984;2023-07-13T08:35:26;3.85;;;1.60;;
65189;SDS011;51777;53.570;9.984;2023-07-13T08:37:52;7.82;;;2.05;;
65189;SDS011;51777;53.570;9.984;2023-07-13T08:40:17;4.75;;;1.40;;
65189;SDS011;51777;53.570;9.984;2023-07-13T08:42:58;12.43;;;2.25;;
65189;SDS011;51777;53.570;9.984;2023-07-13T08:45:27;10.70;;;2.45;;
65189;SDS011;51777;53.570;9.984;2023-07-13T08:47:56;5.10;;;1.70;;
65189;SDS011;51777;53.570;9.984;2023-07-13T08:50:33;4.93;;;1.73;;
65189;SDS011;51777;53.570;9.984;2023-07-13T08:53:04;9.07;;;2.10;;
65189;SDS011;51777;53.570;9.984;2023-07-13T08:55:37;3.55;;;1.30;;
65189;SDS011;51777;53.570;9.984;2023-07-13T08:58:14;10.32;;;1.83;;
65189;SDS011;51777;53.570;9.984;2023-07-13T09:03:16;9.10;;;2.10;;
65189;SDS011;51777;53.570;9.984;2023-07-13T09:05:49;6.72;;;1.83;;
65189;SDS011;51777;53.570;9.984;2023-07-13T09:13:37;6.05;;;1.80;;
65189;SDS011;51777;53.570;9.984;2023-07-13T09:16:04;3.45;;;1.33;;
65189;SDS011;51777;53.570;9.984;2023-07-13T09:18:47;3.90;;;1.70;;
65189;SDS011;51777;53.570;9.984;2023-07-13T09:21:16;7.88;;;1.80;;
65189;SDS011;51777;53.570;9.984;2023-07-13T09:23:47;8.05;;;2.20;;
65189;SDS011;51777;53.570;9.984;2023-07-13T09:26:18;8.27;;;1.65;;
65189;SDS011;51777;53.570;9.984;2023-07-13T09:28:49;7.80;;;1.90;;
65189;SDS011;51777;53.570;9.984;2023-07-13T09:33:59;7.55;;;2.03;;
65189;SDS011;51777;53.570;9.984;2023-07-13T09:36:26;5.82;;;1.80;;
65189;SDS011;51777;53.570;9.984;2023-07-13T09:38:58;4.13;;;1.33;;
65189;SDS011;51777;53.570;9.984;2023-07-13T09:44:16;4.13;;;1.50;;
65189;SDS011;51777;53.570;9.984;2023-07-13T09:46:54;5.75;;;2.10;;
65189;SDS011;51777;53.570;9.984;2023-07-13T09:49:27;13.50;;;2.05;;
65189;SDS011;51777;53.570;9.984;2023-07-13T09:52:03;5.53;;;1.65;;
65189;SDS011;51777;53.570;9.984;2023-07-13T09:54:35;5.57;;;1.83;;
65189;SDS011;51777;53.570;9.984;2023-07-13T09:57:02;5.03;;;1.85;;
65189;SDS011;51777;53.570;9.984;2023-07-13T09:59:29;7.80;;;1.83;;
65189;SDS011;51777;53.570;9.984;2023-07-13T10:01:56;8.52;;;2.20;;
65189;SDS011;51777;53.570;9.984;2023-07-13T10:04:27;8.52;;;1.90;;
65189;SDS011;51777;53.570;9.984;2023-07-13T10:07:08;7.65;;;1.98;;
65189;SDS011;51777;53.570;9.984;2023-07-13T10:09:38;8.05;;;2.03;;
65189;SDS011;51777;53.570;9.984;2023-07-13T10:12:04;6.63;;;2.08;;
65189;SDS011;51777;53.570;9.984;2023-07-13T10:14:37;7.93;;;2.00;;
65189;SDS011;51777;53.570;9.984;2023-07-13T10:17:04;7.10;;;1.92;;
65189;SDS011;51777;53.570;9.984;2023-07-13T10:19:34;5.50;;;2.03;;
65189;SDS011;51777;53.570;9.984;2023-07-13T10:22:02;5.00;;;1.90;;
65189;SDS011;51777;53.570;9.984;2023-07-13T10:24:34;6.22;;;2.17;;
65189;SDS011;51777;53.570;9.984;2023-07-13T10:29:48;4.80;;;1.40;;
65189;SDS011;51777;53.570;9.984;2023-07-13T10:32:19;3.53;;;1.20;;
65189;SDS011;51777;53.570;9.984;2023-07-13T10:34:48;5.13;;;1.77;;
65189;SDS011;51777;53.570;9.984;2023-07-13T10:38:00;3.75;;;1.42;;
65189;SDS011;51777;53.570;9.984;2023-07-13T10:43:27;1.25;;;1.15;;
65189;SDS011;51777;53.570;9.984;2023-07-13T10:45:58;7.57;;;1.70;;
65189;SDS011;51777;53.570;9.984;2023-07-13T10:48:29;3.80;;;1.45;;
65189;SDS011;51777;53.570;9.984;2023-07-13T10:51:00;4.07;;;1.55;;
65189;SDS011;51777;53.570;9.984;2023-07-13T11:02:28;2.63;;;1.35;;
65189;SDS011;51777;53.570;9.984;2023-07-13T11:04:55;4.18;;;1.60;;
65189;SDS011;51777;53.570;9.984;2023-07-13T11:08:03;6.05;;;1.50;;
65189;SDS011;51777;53.570;9.984;2023-07-13T11:10:52;4.60;;;1.50;;
65189;SDS011;51777;53.570;9.984;2023-07-13T11:13:36;4.00;;;1.33;;
65189;SDS011;51777;53.570;9.984;2023-07-13T11:18:45;4.03;;;1.60;;
65189;SDS011;51777;53.570;9.984;2023-07-13T11:21:15;4.30;;;1.40;;
65189;SDS011;51777;53.570;9.984;2023-07-13T11:23:44;7.68;;;1.50;;
65189;SDS011;51777;53.570;9.984;2023-07-13T11:29:52;4.10;;;1.52;;
65189;SDS011;51777;53.570;9.984;2023-07-13T11:32:26;6.57;;;1.70;;
65189;SDS011;51777;53.570;9.984;2023-07-13T11:34:55;3.65;;;1.27;;
65189;SDS011;51777;53.570;9.984;2023-07-13T11:37:20;3.92;;;1.20;;
65189;SDS011;51777;53.570;9.984;2023-07-13T11:39:48;6.03;;;1.20;;
65189;SDS011;51777;53.570;9.984;2023-07-13T11:42:17;3.97;;;1.20;;
65189;SDS011;51777;53.570;9.984;2023-07-13T11:44:49;4.15;;;1.27;;
65189;SDS011;51777;53.570;9.984;2023-07-13T11:47:19;5.63;;;1.45;;
65189;SDS011;51777;53.570;9.984;2023-07-13T11:49:53;3.60;;;1.20;;
65189;SDS011;51777;53.570;9.984;2023-07-13T11:52:34;3.85;;;1.48;;
65189;SDS011;51777;53.570;9.984;2023-07-13T11:55:03;5.85;;;1.63;;
65189;SDS011;51777;53.570;9.984;2023-07-13T11:57:39;5.15;;;1.33;;
65189;SDS011;51777;53.570;9.984;2023-07-13T12:00:23;5.53;;;1.40;;
65189;SDS011;51777;53.570;9.984;2023-07-13T12:02:54;7.82;;;1.50;;
65189;SDS011;51777;53.570;9.984;2023-07-13T12:05:22;6.43;;;1.50;;
65189;SDS011;51777;53.570;9.984;2023-07-13T12:07:48;6.85;;;1.55;;
65189;SDS011;51777;53.570;9.984;2023-07-13T12:10:24;6.25;;;1.40;;
65189;SDS011;51777;53.570;9.984;2023-07-13T12:12:59;5.18;;;1.50;;
65189;SDS011;51777;53.570;9.984;2023-07-13T12:15:47;5.28;;;1.42;;
65189;SDS011;51777;53.570;9.984;2023-07-13T12:18:14;9.95;;;1.67;;
65189;SDS011;51777;53.570;9.984;2023-07-13T12:20:43;10.45;;;2.13;;
65189;SDS011;51777;53.570;9.984;2023-07-13T12:23:29;9.38;;;1.80;;
65189;SDS011;51777;53.570;9.984;2023-07-13T12:25:57;9.82;;;2.30;;
65189;SDS011;51777;53.570;9.984;2023-07-13T12:28:37;7.93;;;2.22;;
65189;SDS011;51777;53.570;9.984;2023-07-13T12:31:25;6.35;;;2.10;;
65189;SDS011;51777;53.570;9.984;2023-07-13T12:34:06;10.77;;;2.40;;
65189;SDS011;51777;53.570;9.984;2023-07-13T12:36:49;6.47;;;2.05;;
65189;SDS011;51777;53.570;9.984;2023-07-13T12:39:19;5.47;;;1.77;;
65189;SDS011;51777;53.570;9.984;2023-07-13T12:41:48;6.72;;;1.70;;
65189;SDS011;51777;53.570;9.984;2023-07-13T12:44:16;8.43;;;1.65;;
65189;SDS011;51777;53.570;9.984;2023-07-13T12:46:57;4.63;;;2.00;;
65189;SDS011;51777;53.570;9.984;2023-07-13T12:49:26;4.63;;;1.60;;
65189;SDS011;51777;53.570;9.984;2023-07-13T12:51:59;4.40;;;1.48;;
65189;SDS011;51777;53.570;9.984;2023-07-13T12:54:26;3.97;;;1.40;;
65189;SDS011;51777;53.570;9.984;2023-07-13T12:56:53;4.57;;;1.58;;
65189;SDS011;51777;53.570;9.984;2023-07-13T12:59:20;4.55;;;1.55;;
65189;SDS011;51777;53.570;9.984;2023-07-13T13:01:47;6.10;;;1.50;;
65189;SDS011;51777;53.570;9.984;2023-07-13T13:04:14;8.82;;;1.80;;
65189;SDS011;51777;53.570;9.984;2023-07-13T13:06:41;5.40;;;1.50;;
65189;SDS011;51777;53.570;9.984;2023-07-13T13:09:15;4.40;;;1.38;;
65189;SDS011;51777;53.570;9.984;2023-07-13T13:11:41;4.22;;;1.60;;
65189;SDS011;51777;53.570;9.984;2023-07-13T13:14:08;3.13;;;1.38;;
65189;SDS011;51777;53.570;9.984;2023-07-13T13:17:07;6.70;;;1.58;;
65189;SDS011;51777;53.570;9.984;2023-07-13T13:19:27;2.92;;;1.40;;
65189;SDS011;51777;53.570;9.984;2023-07-13T13:21:54;7.45;;;1.58;;
65189;SDS011;51777;53.570;9.984;2023-07-13T13:24:22;4.35;;;1.38;;
65189;SDS011;51777;53.570;9.984;2023-07-13T13:26:50;8.15;;;1.38;;
65189;SDS011;51777;53.570;9.984;2023-07-13T13:29:21;5.35;;;1.30;;
65189;SDS011;51777;53.570;9.984;2023-07-13T13:31:53;3.97;;;1.38;;
65189;SDS011;51777;53.570;9.984;2023-07-13T13:34:20;5.13;;;1.40;;
65189;SDS011;51777;53.570;9.984;2023-07-13T13:36:50;6.10;;;1.60;;
65189;SDS011;51777;53.570;9.984;2023-07-13T13:39:25;4.63;;;1.50;;
65189;SDS011;51777;53.570;9.984;2023-07-13T13:41:57;4.07;;;1.40;;
65189;SDS011;51777;53.570;9.984;2023-07-13T13:44:23;4.10;;;1.60;;
65189;SDS011;51777;53.570;9.984;2023-07-13T13:46:50;5.85;;;1.40;;
65189;SDS011;51777;53.570;9.984;2023-07-13T13:49:21;2.35;;;1.20;;
65189;SDS011;51777;53.570;9.984;2023-07-13T13:51:49;3.28;;;1.40;;
65189;SDS011;51777;53.570;9.984;2023-07-13T13:54:15;4.43;;;1.40;;
65189;SDS011;51777;53.570;9.984;2023-07-13T13:56:46;3.42;;;1.30;;
65189;SDS011;51777;53.570;9.984;2023-07-13T13:59:12;3.13;;;1.27;;
65189;SDS011;51777;53.570;9.984;2023-07-13T14:01:39;4.65;;;1.48;;
65189;SDS011;51777;53.570;9.984;2023-07-13T14:04:08;3.70;;;1.40;;
65189;SDS011;51777;53.570;9.984;2023-07-13T14:06:40;7.00;;;1.55;;
65189;SDS011;51777;53.570;9.984;2023-07-13T14:09:09;3.55;;;1.52;;
65189;SDS011;51777;53.570;9.984;2023-07-13T14:11:36;3.13;;;1.30;;
65189;SDS011;51777;53.570;9.984;2023-07-13T14:14:02;3.60;;;1.25;;
65189;SDS011;51777;53.570;9.984;2023-07-13T14:16:30;4.28;;;1.70;;
65189;SDS011;51777;53.570;9.984;2023-07-13T14:18:58;2.83;;;1.33;;
65189;SDS011;51777;53.570;9.984;2023-07-13T14:21:25;2.38;;;1.25;;
65189;SDS011;51777;53.570;9.984;2023-07-13T14:23:52;4.63;;;1.40;;
65189;SDS011;51777;53.570;9.984;2023-07-13T14:26:18;1.85;;;1.08;;
65189;SDS011;51777;53.570;9.984;2023-07-13T14:28:57;5.53;;;1.42;;
65189;SDS011;51777;53.570;9.984;2023-07-13T14:31:25;3.58;;;1.40;;
65189;SDS011;51777;53.570;9.984;2023-07-13T14:33:54;3.35;;;1.50;;
65189;SDS011;51777;53.570;9.984;2023-07-13T14:39:01;3.70;;;1.50;;
65189;SDS011;51777;53.570;9.984;2023-07-13T14:41:35;2.33;;;1.45;;
65189;SDS011;51777;53.570;9.984;2023-07-13T14:44:00;2.45;;;1.20;;
65189;SDS011;51777;53.570;9.984;2023-07-13T14:46:33;4.28;;;1.30;;
65189;SDS011;51777;53.570;9.984;2023-07-13T14:49:05;4.47;;;1.58;;
65189;SDS011;51777;53.570;9.984;2023-07-13T14:51:41;4.85;;;1.70;;
65189;SDS011;51777;53.570;9.984;2023-07-13T14:54:08;1.65;;;1.30;;
65189;SDS011;51777;53.570;9.984;2023-07-13T14:56:34;3.22;;;1.75;;
65189;SDS011;51777;53.570;9.984;2023-07-13T14:59:00;2.35;;;1.70;;
65189;SDS011;51777;53.570;9.984;2023-07-13T15:01:25;3.22;;;1.70;;
65189;SDS011;51777;53.570;9.984;2023-07-13T15:03:52;3.67;;;1.73;;
65189;SDS011;51777;53.570;9.984;2023-07-13T15:06:18;1.77;;;1.33;;
65189;SDS011;51777;53.570;9.984;2023-07-13T15:08:44;2.55;;;1.63;;
65189;SDS011;51777;53.570;9.984;2023-07-13T15:11:10;2.50;;;1.70;;
65189;SDS011;51777;53.570;9.984;2023-07-13T15:13:39;2.92;;;1.67;;
65189;SDS011;51777;53.570;9.984;2023-07-13T15:16:24;3.35;;;1.40;;
65189;SDS011;51777;53.570;9.984;2023-07-13T15:18:51;2.97;;;1.40;;
65189;SDS011;51777;53.570;9.984;2023-07-13T15:21:21;5.68;;;1.50;;
65189;SDS011;51777;53.570;9.984;2023-07-13T15:23:49;3.15;;;1.55;;
65189;SDS011;51777;53.570;9.984;2023-07-13T15:26:16;5.35;;;1.80;;
65189;SDS011;51777;53.570;9.984;2023-07-13T15:28:43;3.15;;;1.60;;